Terminal Aerodrome Forecast
Issued by NWS Bismarck, ND

Home | Current Version | Previous Version | Text Only | Print | Product List | Glossary Off
Versions: 1 2 3 4 5 6 7 8 9 10 11 12 13 14 15 16 17 18 19 20 21 22 23 24

000
FTUS43 KBIS 232333
TAFISN
TAF
KISN 232333Z 2400/2424 25014G21KT P6SM VCSH SCT070 BKN140
     FM240200 26008KT P6SM FEW120 BKN200
     FM241500 23007KT P6SM FEW100 SCT200=

USA.gov is the U.S. government's official web portal to all federal, state and local government web resources and services.